sensor_id;sensor_type;location;lat;lon;timestamp;P1;durP1;ratioP1;P2;durP2;ratioP2
21438;SDS011;10880;50.302;18.736;2022-11-15T00:01:24;34.40;;;16.77;;
21438;SDS011;10880;50.302;18.736;2022-11-15T00:04:09;19.57;;;10.37;;
21438;SDS011;10880;50.302;18.736;2022-11-15T00:06:54;18.20;;;9.40;;
21438;SDS011;10880;50.302;18.736;2022-11-15T00:09:39;24.70;;;12.10;;
21438;SDS011;10880;50.302;18.736;2022-11-15T00:12:24;19.23;;;10.60;;
21438;SDS011;10880;50.302;18.736;2022-11-15T00:15:11;16.93;;;9.70;;
21438;SDS011;10880;50.302;18.736;2022-11-15T00:17:56;17.93;;;9.93;;
21438;SDS011;10880;50.302;18.736;2022-11-15T00:20:41;31.10;;;15.50;;
21438;SDS011;10880;50.302;18.736;2022-11-15T00:23:27;22.07;;;11.50;;
21438;SDS011;10880;50.302;18.736;2022-11-15T00:26:12;23.97;;;12.73;;
21438;SDS011;10880;50.302;18.736;2022-11-15T00:28:59;21.27;;;10.87;;
21438;SDS011;10880;50.302;18.736;2022-11-15T00:31:44;19.80;;;11.40;;
21438;SDS011;10880;50.302;18.736;2022-11-15T00:34:29;17.63;;;10.00;;
21438;SDS011;10880;50.302;18.736;2022-11-15T00:37:14;17.93;;;9.80;;
21438;SDS011;10880;50.302;18.736;2022-11-15T00:39:59;18.43;;;10.40;;
21438;SDS011;10880;50.302;18.736;2022-11-15T00:42:44;17.00;;;9.70;;
21438;SDS011;10880;50.302;18.736;2022-11-15T00:45:28;18.30;;;8.70;;
21438;SDS011;10880;50.302;18.736;2022-11-15T00:48:13;14.93;;;8.37;;
21438;SDS011;10880;50.302;18.736;2022-11-15T00:50:58;15.07;;;8.63;;
21438;SDS011;10880;50.302;18.736;2022-11-15T00:53:43;18.27;;;9.77;;
21438;SDS011;10880;50.302;18.736;2022-11-15T00:56:28;18.20;;;9.50;;
21438;SDS011;10880;50.302;18.736;2022-11-15T00:59:13;15.53;;;7.93;;
21438;SDS011;10880;50.302;18.736;2022-11-15T01:01:58;23.30;;;12.20;;
21438;SDS011;10880;50.302;18.736;2022-11-15T01:04:43;23.00;;;12.57;;
21438;SDS011;10880;50.302;18.736;2022-11-15T01:07:28;21.30;;;11.80;;
21438;SDS011;10880;50.302;18.736;2022-11-15T01:10:13;20.70;;;12.07;;
21438;SDS011;10880;50.302;18.736;2022-11-15T01:12:57;17.97;;;9.83;;
21438;SDS011;10880;50.302;18.736;2022-11-15T01:15:43;16.07;;;8.63;;
21438;SDS011;10880;50.302;18.736;2022-11-15T01:18:28;11.73;;;7.47;;
21438;SDS011;10880;50.302;18.736;2022-11-15T01:21:14;12.43;;;7.47;;
21438;SDS011;10880;50.302;18.736;2022-11-15T01:24:00;12.87;;;7.63;;
21438;SDS011;10880;50.302;18.736;2022-11-15T01:26:45;17.33;;;9.67;;
21438;SDS011;10880;50.302;18.736;2022-11-15T01:29:30;17.43;;;9.10;;
21438;SDS011;10880;50.302;18.736;2022-11-15T01:32:15;10.93;;;7.27;;
21438;SDS011;10880;50.302;18.736;2022-11-15T01:35:00;14.40;;;7.97;;
21438;SDS011;10880;50.302;18.736;2022-11-15T01:37:45;13.33;;;7.17;;
21438;SDS011;10880;50.302;18.736;2022-11-15T01:40:30;10.30;;;5.80;;
21438;SDS011;10880;50.302;18.736;2022-11-15T01:43:25;9.70;;;6.40;;
21438;SDS011;10880;50.302;18.736;2022-11-15T01:46:29;11.93;;;7.17;;
21438;SDS011;10880;50.302;18.736;2022-11-15T01:49:23;10.73;;;6.70;;
21438;SDS011;10880;50.302;18.736;2022-11-15T01:52:12;16.07;;;8.77;;
21438;SDS011;10880;50.302;18.736;2022-11-15T01:55:11;16.20;;;9.00;;
21438;SDS011;10880;50.302;18.736;2022-11-15T01:58:01;16.60;;;9.40;;
21438;SDS011;10880;50.302;18.736;2022-11-15T02:00:48;18.47;;;9.60;;
21438;SDS011;10880;50.302;18.736;2022-11-15T02:03:36;14.33;;;8.27;;
21438;SDS011;10880;50.302;18.736;2022-11-15T02:06:30;20.10;;;11.67;;
21438;SDS011;10880;50.302;18.736;2022-11-15T02:09:16;15.70;;;9.33;;
21438;SDS011;10880;50.302;18.736;2022-11-15T02:12:01;16.63;;;9.07;;
21438;SDS011;10880;50.302;18.736;2022-11-15T02:14:47;15.47;;;8.27;;
21438;SDS011;10880;50.302;18.736;2022-11-15T02:36:00;14.10;;;8.47;;
21438;SDS011;10880;50.302;18.736;2022-11-15T02:38:49;14.13;;;7.60;;
21438;SDS011;10880;50.302;18.736;2022-11-15T02:41:47;21.67;;;11.00;;
21438;SDS011;10880;50.302;18.736;2022-11-15T02:44:33;17.77;;;9.20;;
21438;SDS011;10880;50.302;18.736;2022-11-15T02:47:23;19.50;;;10.23;;
21438;SDS011;10880;50.302;18.736;2022-11-15T02:50:10;10.70;;;6.27;;
21438;SDS011;10880;50.302;18.736;2022-11-15T02:52:59;12.30;;;6.60;;
21438;SDS011;10880;50.302;18.736;2022-11-15T02:55:46;15.53;;;8.60;;
21438;SDS011;10880;50.302;18.736;2022-11-15T03:05:19;15.83;;;9.20;;
21438;SDS011;10880;50.302;18.736;2022-11-15T03:08:57;13.90;;;8.00;;
21438;SDS011;10880;50.302;18.736;2022-11-15T03:11:22;16.17;;;8.80;;
21438;SDS011;10880;50.302;18.736;2022-11-15T03:14:11;15.90;;;9.20;;
21438;SDS011;10880;50.302;18.736;2022-11-15T03:17:24;14.47;;;9.03;;
21438;SDS011;10880;50.302;18.736;2022-11-15T03:20:11;17.63;;;10.27;;
21438;SDS011;10880;50.302;18.736;2022-11-15T03:23:01;18.07;;;9.23;;
21438;SDS011;10880;50.302;18.736;2022-11-15T03:25:49;14.63;;;8.90;;
21438;SDS011;10880;50.302;18.736;2022-11-15T03:28:36;12.43;;;7.13;;
21438;SDS011;10880;50.302;18.736;2022-11-15T03:31:28;14.43;;;8.20;;
21438;SDS011;10880;50.302;18.736;2022-11-15T03:34:36;20.93;;;10.50;;
21438;SDS011;10880;50.302;18.736;2022-11-15T03:37:27;12.93;;;8.37;;
21438;SDS011;10880;50.302;18.736;2022-11-15T03:40:17;12.03;;;7.20;;
21438;SDS011;10880;50.302;18.736;2022-11-15T03:46:01;14.23;;;8.50;;
21438;SDS011;10880;50.302;18.736;2022-11-15T03:48:50;17.47;;;10.53;;
21438;SDS011;10880;50.302;18.736;2022-11-15T03:51:39;19.57;;;11.07;;
21438;SDS011;10880;50.302;18.736;2022-11-15T03:54:24;15.13;;;8.53;;
21438;SDS011;10880;50.302;18.736;2022-11-15T03:57:09;18.27;;;10.43;;
21438;SDS011;10880;50.302;18.736;2022-11-15T03:59:54;14.67;;;8.33;;
21438;SDS011;10880;50.302;18.736;2022-11-15T04:02:39;11.87;;;6.60;;
21438;SDS011;10880;50.302;18.736;2022-11-15T04:05:24;10.37;;;6.20;;
21438;SDS011;10880;50.302;18.736;2022-11-15T04:08:09;10.63;;;6.10;;
21438;SDS011;10880;50.302;18.736;2022-11-15T04:10:53;11.50;;;6.20;;
21438;SDS011;10880;50.302;18.736;2022-11-15T04:13:38;9.43;;;6.20;;
21438;SDS011;10880;50.302;18.736;2022-11-15T04:16:23;10.93;;;6.50;;
21438;SDS011;10880;50.302;18.736;2022-11-15T04:19:08;9.23;;;5.23;;
21438;SDS011;10880;50.302;18.736;2022-11-15T04:22:11;7.27;;;4.33;;
21438;SDS011;10880;50.302;18.736;2022-11-15T04:25:15;9.30;;;6.03;;
21438;SDS011;10880;50.302;18.736;2022-11-15T04:27:59;14.57;;;7.27;;
21438;SDS011;10880;50.302;18.736;2022-11-15T04:30:44;10.80;;;6.57;;
21438;SDS011;10880;50.302;18.736;2022-11-15T04:33:29;10.47;;;6.20;;
21438;SDS011;10880;50.302;18.736;2022-11-15T04:36:14;17.47;;;9.40;;
21438;SDS011;10880;50.302;18.736;2022-11-15T04:39:18;14.47;;;8.67;;
21438;SDS011;10880;50.302;18.736;2022-11-15T04:42:03;12.63;;;7.73;;
21438;SDS011;10880;50.302;18.736;2022-11-15T04:44:48;14.30;;;7.57;;
21438;SDS011;10880;50.302;18.736;2022-11-15T04:47:33;18.23;;;10.10;;
21438;SDS011;10880;50.302;18.736;2022-11-15T04:50:18;14.03;;;7.47;;
21438;SDS011;10880;50.302;18.736;2022-11-15T04:53:03;12.97;;;7.60;;
21438;SDS011;10880;50.302;18.736;2022-11-15T04:55:48;15.60;;;8.57;;
21438;SDS011;10880;50.302;18.736;2022-11-15T04:58:33;13.20;;;8.00;;
21438;SDS011;10880;50.302;18.736;2022-11-15T05:01:18;18.77;;;10.40;;
21438;SDS011;10880;50.302;18.736;2022-11-15T05:04:03;17.07;;;9.67;;
21438;SDS011;10880;50.302;18.736;2022-11-15T05:07:03;22.20;;;11.67;;
21438;SDS011;10880;50.302;18.736;2022-11-15T05:09:48;17.53;;;9.93;;
21438;SDS011;10880;50.302;18.736;2022-11-15T05:12:33;17.70;;;9.53;;
21438;SDS011;10880;50.302;18.736;2022-11-15T05:15:19;11.00;;;6.53;;
21438;SDS011;10880;50.302;18.736;2022-11-15T05:18:04;17.43;;;9.37;;
21438;SDS011;10880;50.302;18.736;2022-11-15T05:20:49;12.20;;;7.50;;
21438;SDS011;10880;50.302;18.736;2022-11-15T05:23:34;13.93;;;7.50;;
21438;SDS011;10880;50.302;18.736;2022-11-15T05:26:19;11.47;;;6.80;;
21438;SDS011;10880;50.302;18.736;2022-11-15T05:29:03;16.93;;;9.47;;
21438;SDS011;10880;50.302;18.736;2022-11-15T05:31:49;13.20;;;8.33;;
21438;SDS011;10880;50.302;18.736;2022-11-15T05:34:33;15.93;;;9.07;;
21438;SDS011;10880;50.302;18.736;2022-11-15T05:37:19;18.73;;;10.00;;
21438;SDS011;10880;50.302;18.736;2022-11-15T05:40:04;17.70;;;9.93;;
21438;SDS011;10880;50.302;18.736;2022-11-15T05:42:49;16.07;;;9.03;;
21438;SDS011;10880;50.302;18.736;2022-11-15T05:45:34;23.27;;;11.80;;
21438;SDS011;10880;50.302;18.736;2022-11-15T05:48:21;26.40;;;14.77;;
21438;SDS011;10880;50.302;18.736;2022-11-15T05:51:06;23.60;;;13.13;;
21438;SDS011;10880;50.302;18.736;2022-11-15T05:53:51;16.93;;;9.73;;
21438;SDS011;10880;50.302;18.736;2022-11-15T05:56:39;20.27;;;11.17;;
21438;SDS011;10880;50.302;18.736;2022-11-15T05:59:24;20.37;;;11.27;;
21438;SDS011;10880;50.302;18.736;2022-11-15T06:02:10;23.20;;;12.60;;
21438;SDS011;10880;50.302;18.736;2022-11-15T06:04:55;19.70;;;10.57;;
21438;SDS011;10880;50.302;18.736;2022-11-15T06:07:40;13.27;;;8.17;;
21438;SDS011;10880;50.302;18.736;2022-11-15T06:10:26;10.97;;;6.70;;
21438;SDS011;10880;50.302;18.736;2022-11-15T06:13:11;10.00;;;5.83;;
21438;SDS011;10880;50.302;18.736;2022-11-15T06:15:56;8.63;;;5.50;;
21438;SDS011;10880;50.302;18.736;2022-11-15T06:18:41;12.17;;;6.37;;
21438;SDS011;10880;50.302;18.736;2022-11-15T06:21:26;10.27;;;6.47;;
21438;SDS011;10880;50.302;18.736;2022-11-15T06:24:12;8.93;;;5.90;;
21438;SDS011;10880;50.302;18.736;2022-11-15T06:26:57;7.13;;;5.00;;
21438;SDS011;10880;50.302;18.736;2022-11-15T06:29:42;10.07;;;6.13;;
21438;SDS011;10880;50.302;18.736;2022-11-15T06:32:28;12.30;;;7.10;;
21438;SDS011;10880;50.302;18.736;2022-11-15T06:35:16;15.00;;;8.07;;
21438;SDS011;10880;50.302;18.736;2022-11-15T06:38:03;15.37;;;8.70;;
21438;SDS011;10880;50.302;18.736;2022-11-15T06:40:53;14.63;;;8.70;;
21438;SDS011;10880;50.302;18.736;2022-11-15T06:43:38;16.83;;;9.47;;
21438;SDS011;10880;50.302;18.736;2022-11-15T06:46:23;17.47;;;9.47;;
21438;SDS011;10880;50.302;18.736;2022-11-15T06:49:08;13.33;;;6.93;;
21438;SDS011;10880;50.302;18.736;2022-11-15T06:51:53;14.60;;;8.13;;
21438;SDS011;10880;50.302;18.736;2022-11-15T06:54:38;15.57;;;9.20;;
21438;SDS011;10880;50.302;18.736;2022-11-15T06:57:23;19.03;;;9.67;;
21438;SDS011;10880;50.302;18.736;2022-11-15T07:00:09;22.97;;;11.73;;
21438;SDS011;10880;50.302;18.736;2022-11-15T07:02:54;18.97;;;10.87;;
21438;SDS011;10880;50.302;18.736;2022-11-15T07:05:39;21.93;;;11.93;;
21438;SDS011;10880;50.302;18.736;2022-11-15T07:08:26;26.13;;;14.07;;
21438;SDS011;10880;50.302;18.736;2022-11-15T07:11:12;31.70;;;15.73;;
21438;SDS011;10880;50.302;18.736;2022-11-15T07:13:57;27.73;;;14.03;;
21438;SDS011;10880;50.302;18.736;2022-11-15T07:16:43;26.33;;;13.23;;
21438;SDS011;10880;50.302;18.736;2022-11-15T07:19:28;18.90;;;10.03;;
21438;SDS011;10880;50.302;18.736;2022-11-15T07:22:13;15.10;;;8.77;;
21438;SDS011;10880;50.302;18.736;2022-11-15T07:24:57;11.63;;;6.40;;
21438;SDS011;10880;50.302;18.736;2022-11-15T07:27:42;8.57;;;5.30;;
21438;SDS011;10880;50.302;18.736;2022-11-15T07:30:27;15.40;;;8.43;;
21438;SDS011;10880;50.302;18.736;2022-11-15T07:33:12;15.80;;;8.77;;
21438;SDS011;10880;50.302;18.736;2022-11-15T07:35:58;9.90;;;6.00;;
21438;SDS011;10880;50.302;18.736;2022-11-15T07:38:45;7.87;;;5.23;;
21438;SDS011;10880;50.302;18.736;2022-11-15T07:41:30;7.30;;;5.13;;
21438;SDS011;10880;50.302;18.736;2022-11-15T07:44:15;10.83;;;6.30;;
21438;SDS011;10880;50.302;18.736;2022-11-15T07:47:00;9.13;;;5.93;;
21438;SDS011;10880;50.302;18.736;2022-11-15T07:49:45;18.47;;;9.87;;
21438;SDS011;10880;50.302;18.736;2022-11-15T07:52:30;18.13;;;10.30;;
21438;SDS011;10880;50.302;18.736;2022-11-15T07:55:15;30.30;;;14.83;;
21438;SDS011;10880;50.302;18.736;2022-11-15T07:58:01;18.30;;;9.47;;
21438;SDS011;10880;50.302;18.736;2022-11-15T08:00:50;27.67;;;15.23;;
21438;SDS011;10880;50.302;18.736;2022-11-15T08:03:36;35.67;;;17.67;;
21438;SDS011;10880;50.302;18.736;2022-11-15T08:06:21;25.77;;;13.97;;
21438;SDS011;10880;50.302;18.736;2022-11-15T08:09:06;30.97;;;17.20;;
21438;SDS011;10880;50.302;18.736;2022-11-15T08:11:51;27.30;;;15.20;;
21438;SDS011;10880;50.302;18.736;2022-11-15T08:14:37;32.00;;;17.03;;
21438;SDS011;10880;50.302;18.736;2022-11-15T08:17:23;18.90;;;10.97;;
21438;SDS011;10880;50.302;18.736;2022-11-15T08:20:08;32.83;;;17.33;;
21438;SDS011;10880;50.302;18.736;2022-11-15T08:22:54;32.67;;;16.60;;
21438;SDS011;10880;50.302;18.736;2022-11-15T08:25:42;29.83;;;15.57;;
21438;SDS011;10880;50.302;18.736;2022-11-15T08:28:28;26.43;;;13.67;;
21438;SDS011;10880;50.302;18.736;2022-11-15T08:31:14;24.40;;;12.77;;
21438;SDS011;10880;50.302;18.736;2022-11-15T08:34:00;32.20;;;16.40;;
21438;SDS011;10880;50.302;18.736;2022-11-15T08:36:46;25.73;;;14.33;;
21438;SDS011;10880;50.302;18.736;2022-11-15T08:39:31;28.87;;;15.57;;
21438;SDS011;10880;50.302;18.736;2022-11-15T08:42:16;27.30;;;14.70;;
21438;SDS011;10880;50.302;18.736;2022-11-15T08:45:02;31.43;;;17.80;;
21438;SDS011;10880;50.302;18.736;2022-11-15T08:47:47;34.47;;;18.03;;
21438;SDS011;10880;50.302;18.736;2022-11-15T08:50:33;34.70;;;17.30;;
21438;SDS011;10880;50.302;18.736;2022-11-15T08:53:18;32.03;;;16.47;;
21438;SDS011;10880;50.302;18.736;2022-11-15T08:56:03;40.17;;;20.83;;
21438;SDS011;10880;50.302;18.736;2022-11-15T08:58:53;34.23;;;18.07;;
21438;SDS011;10880;50.302;18.736;2022-11-15T09:01:38;39.40;;;20.33;;
21438;SDS011;10880;50.302;18.736;2022-11-15T09:04:22;26.37;;;14.60;;
21438;SDS011;10880;50.302;18.736;2022-11-15T09:07:08;47.23;;;24.80;;
21438;SDS011;10880;50.302;18.736;2022-11-15T09:09:54;39.60;;;20.60;;
21438;SDS011;10880;50.302;18.736;2022-11-15T09:12:41;36.67;;;19.67;;
21438;SDS011;10880;50.302;18.736;2022-11-15T09:15:29;27.67;;;14.97;;
21438;SDS011;10880;50.302;18.736;2022-11-15T09:18:14;27.10;;;17.05;;
21438;SDS011;10880;50.302;18.736;2022-11-15T09:20:59;26.90;;;15.83;;
21438;SDS011;10880;50.302;18.736;2022-11-15T09:23:51;19.70;;;11.40;;
21438;SDS011;10880;50.302;18.736;2022-11-15T09:26:37;14.10;;;8.40;;
21438;SDS011;10880;50.302;18.736;2022-11-15T09:29:22;27.33;;;15.07;;
21438;SDS011;10880;50.302;18.736;2022-11-15T09:32:09;21.33;;;11.83;;
21438;SDS011;10880;50.302;18.736;2022-11-15T09:34:57;23.00;;;12.97;;
21438;SDS011;10880;50.302;18.736;2022-11-15T09:37:42;25.13;;;14.00;;
21438;SDS011;10880;50.302;18.736;2022-11-15T09:40:29;30.70;;;17.60;;
21438;SDS011;10880;50.302;18.736;2022-11-15T09:46:27;29.90;;;17.37;;
21438;SDS011;10880;50.302;18.736;2022-11-15T09:49:15;18.43;;;11.20;;
21438;SDS011;10880;50.302;18.736;2022-11-15T09:52:14;15.20;;;9.27;;
21438;SDS011;10880;50.302;18.736;2022-11-15T09:54:43;39.30;;;20.93;;
21438;SDS011;10880;50.302;18.736;2022-11-15T09:57:14;41.43;;;21.87;;
21438;SDS011;10880;50.302;18.736;2022-11-15T09:59:58;27.47;;;14.70;;
21438;SDS011;10880;50.302;18.736;2022-11-15T10:05:12;30.87;;;18.33;;
21438;SDS011;10880;50.302;18.736;2022-11-15T10:07:49;47.37;;;24.30;;
21438;SDS011;10880;50.302;18.736;2022-11-15T10:16:02;13.20;;;8.80;;
21438;SDS011;10880;50.302;18.736;2022-11-15T10:18:49;34.77;;;18.67;;
21438;SDS011;10880;50.302;18.736;2022-11-15T10:21:34;18.40;;;10.97;;
21438;SDS011;10880;50.302;18.736;2022-11-15T10:24:12;11.80;;;8.10;;
21438;SDS011;10880;50.302;18.736;2022-11-15T10:26:47;11.20;;;7.30;;
21438;SDS011;10880;50.302;18.736;2022-11-15T10:29:20;11.67;;;6.63;;
21438;SDS011;10880;50.302;18.736;2022-11-15T10:31:48;9.30;;;6.23;;
21438;SDS011;10880;50.302;18.736;2022-11-15T10:34:16;9.47;;;6.30;;
21438;SDS011;10880;50.302;18.736;2022-11-15T10:36:58;10.40;;;6.80;;
21438;SDS011;10880;50.302;18.736;2022-11-15T10:39:29;10.07;;;6.47;;
21438;SDS011;10880;50.302;18.736;2022-11-15T10:41:56;9.90;;;6.00;;
21438;SDS011;10880;50.302;18.736;2022-11-15T10:44:24;9.97;;;6.40;;
21438;SDS011;10880;50.302;18.736;2022-11-15T10:57:07;16.73;;;10.27;;
21438;SDS011;10880;50.302;18.736;2022-11-15T11:02:38;11.43;;;7.33;;
21438;SDS011;10880;50.302;18.736;2022-11-15T11:05:31;9.87;;;6.77;;
21438;SDS011;10880;50.302;18.736;2022-11-15T11:08:02;27.90;;;16.43;;
21438;SDS011;10880;50.302;18.736;2022-11-15T11:10:31;23.67;;;14.13;;
21438;SDS011;10880;50.302;18.736;2022-11-15T11:16:28;27.03;;;14.20;;
21438;SDS011;10880;50.302;18.736;2022-11-15T11:30:06;12.73;;;8.60;;
21438;SDS011;10880;50.302;18.736;2022-11-15T11:46:33;13.97;;;8.60;;
21438;SDS011;10880;50.302;18.736;2022-11-15T11:49:42;22.67;;;13.50;;
21438;SDS011;10880;50.302;18.736;2022-11-15T11:52:25;14.57;;;9.30;;
21438;SDS011;10880;50.302;18.736;2022-11-15T11:55:14;11.33;;;7.23;;
21438;SDS011;10880;50.302;18.736;2022-11-15T12:00:34;11.43;;;7.07;;
21438;SDS011;10880;50.302;18.736;2022-11-15T12:06:09;7.93;;;5.87;;
21438;SDS011;10880;50.302;18.736;2022-11-15T12:08:50;22.60;;;13.67;;
21438;SDS011;10880;50.302;18.736;2022-11-15T12:11:51;14.53;;;9.20;;
21438;SDS011;10880;50.302;18.736;2022-11-15T12:14:26;9.70;;;7.17;;
21438;SDS011;10880;50.302;18.736;2022-11-15T12:17:13;41.43;;;21.93;;
21438;SDS011;10880;50.302;18.736;2022-11-15T12:19:44;29.60;;;15.87;;
21438;SDS011;10880;50.302;18.736;2022-11-15T12:24:51;18.17;;;10.93;;
21438;SDS011;10880;50.302;18.736;2022-11-15T12:29:59;16.27;;;10.17;;
21438;SDS011;10880;50.302;18.736;2022-11-15T12:32:31;11.83;;;8.10;;
21438;SDS011;10880;50.302;18.736;2022-11-15T12:35:03;12.13;;;8.27;;
21438;SDS011;10880;50.302;18.736;2022-11-15T12:37:50;11.07;;;7.97;;
21438;SDS011;10880;50.302;18.736;2022-11-15T12:45:44;10.60;;;7.83;;
21438;SDS011;10880;50.302;18.736;2022-11-15T12:58:45;23.33;;;11.90;;
21438;SDS011;10880;50.302;18.736;2022-11-15T13:12:10;7.47;;;5.40;;
21438;SDS011;10880;50.302;18.736;2022-11-15T13:20:31;8.37;;;5.87;;
21438;SDS011;10880;50.302;18.736;2022-11-15T13:22:39;7.53;;;5.83;;
21438;SDS011;10880;50.302;18.736;2022-11-15T13:28:02;13.63;;;8.90;;
21438;SDS011;10880;50.302;18.736;2022-11-15T13:30:48;8.20;;;6.00;;
21438;SDS011;10880;50.302;18.736;2022-11-15T13:35:50;6.13;;;4.90;;
21438;SDS011;10880;50.302;18.736;2022-11-15T13:40:50;6.93;;;4.77;;
21438;SDS011;10880;50.302;18.736;2022-11-15T13:43:32;6.27;;;4.97;;
21438;SDS011;10880;50.302;18.736;2022-11-15T13:46:11;6.50;;;4.77;;
21438;SDS011;10880;50.302;18.736;2022-11-15T13:48:38;5.23;;;4.33;;
21438;SDS011;10880;50.302;18.736;2022-11-15T13:51:08;6.00;;;4.40;;
21438;SDS011;10880;50.302;18.736;2022-11-15T13:53:49;6.40;;;4.77;;
21438;SDS011;10880;50.302;18.736;2022-11-15T13:56:22;7.43;;;5.37;;
21438;SDS011;10880;50.302;18.736;2022-11-15T13:58:49;8.80;;;6.67;;
21438;SDS011;10880;50.302;18.736;2022-11-15T14:01:17;7.67;;;6.57;;
21438;SDS011;10880;50.302;18.736;2022-11-15T14:03:47;8.13;;;6.20;;
21438;SDS011;10880;50.302;18.736;2022-11-15T14:06:21;8.83;;;6.73;;
21438;SDS011;10880;50.302;18.736;2022-11-15T14:11:37;7.10;;;5.50;;
21438;SDS011;10880;50.302;18.736;2022-11-15T14:14:20;8.07;;;5.83;;
21438;SDS011;10880;50.302;18.736;2022-11-15T14:16:55;8.00;;;5.97;;
21438;SDS011;10880;50.302;18.736;2022-11-15T14:24:36;8.10;;;5.37;;
21438;SDS011;10880;50.302;18.736;2022-11-15T14:30:02;6.57;;;4.90;;
21438;SDS011;10880;50.302;18.736;2022-11-15T14:32:30;7.17;;;5.17;;
21438;SDS011;10880;50.302;18.736;2022-11-15T14:35:09;7.40;;;5.23;;
21438;SDS011;10880;50.302;18.736;2022-11-15T14:37:43;7.17;;;5.03;;
21438;SDS011;10880;50.302;18.736;2022-11-15T14:40:11;6.97;;;5.20;;
21438;SDS011;10880;50.302;18.736;2022-11-15T14:42:41;7.37;;;5.20;;
21438;SDS011;10880;50.302;18.736;2022-11-15T14:45:10;7.90;;;5.60;;
21438;SDS011;10880;50.302;18.736;2022-11-15T14:47:39;7.03;;;4.70;;
21438;SDS011;10880;50.302;18.736;2022-11-15T14:50:05;6.83;;;5.33;;
21438;SDS011;10880;50.302;18.736;2022-11-15T14:52:32;9.17;;;6.10;;
21438;SDS011;10880;50.302;18.736;2022-11-15T14:55:01;8.43;;;5.77;;
21438;SDS011;10880;50.302;18.736;2022-11-15T14:57:29;7.70;;;5.43;;
21438;SDS011;10880;50.302;18.736;2022-11-15T14:59:56;7.13;;;5.17;;
21438;SDS011;10880;50.302;18.736;2022-11-15T15:02:23;7.90;;;5.67;;
21438;SDS011;10880;50.302;18.736;2022-11-15T15:04:52;8.30;;;5.47;;
21438;SDS011;10880;50.302;18.736;2022-11-15T15:07:22;8.83;;;5.47;;
21438;SDS011;10880;50.302;18.736;2022-11-15T15:09:48;9.03;;;5.87;;
21438;SDS011;10880;50.302;18.736;2022-11-15T15:12:21;10.27;;;5.70;;
21438;SDS011;10880;50.302;18.736;2022-11-15T15:14:49;9.63;;;6.37;;
21438;SDS011;10880;50.302;18.736;2022-11-15T15:17:16;9.17;;;5.77;;
21438;SDS011;10880;50.302;18.736;2022-11-15T15:19:43;9.27;;;5.20;;
21438;SDS011;10880;50.302;18.736;2022-11-15T15:22:16;11.80;;;6.80;;
21438;SDS011;10880;50.302;18.736;2022-11-15T15:24:44;9.73;;;6.60;;
21438;SDS011;10880;50.302;18.736;2022-11-15T15:27:12;9.93;;;6.43;;
21438;SDS011;10880;50.302;18.736;2022-11-15T15:29:38;9.50;;;6.00;;
21438;SDS011;10880;50.302;18.736;2022-11-15T15:32:05;9.10;;;6.30;;
21438;SDS011;10880;50.302;18.736;2022-11-15T15:34:32;11.83;;;6.83;;
21438;SDS011;10880;50.302;18.736;2022-11-15T15:39:58;8.50;;;5.87;;
21438;SDS011;10880;50.302;18.736;2022-11-15T15:42:25;9.97;;;6.30;;
21438;SDS011;10880;50.302;18.736;2022-11-15T15:44:52;9.70;;;6.17;;
21438;SDS011;10880;50.302;18.736;2022-11-15T15:47:22;8.57;;;5.80;;
21438;SDS011;10880;50.302;18.736;2022-11-15T15:49:49;8.40;;;5.47;;
21438;SDS011;10880;50.302;18.736;2022-11-15T15:52:16;9.37;;;6.33;;
21438;SDS011;10880;50.302;18.736;2022-11-15T15:54:43;11.43;;;6.73;;
21438;SDS011;10880;50.302;18.736;2022-11-15T15:57:11;11.70;;;6.43;;
21438;SDS011;10880;50.302;18.736;2022-11-15T15:59:38;11.60;;;6.93;;
21438;SDS011;10880;50.302;18.736;2022-11-15T16:02:06;9.07;;;6.20;;
21438;SDS011;10880;50.302;18.736;2022-11-15T16:04:43;15.53;;;6.40;;
21438;SDS011;10880;50.302;18.736;2022-11-15T16:07:37;10.37;;;6.13;;
21438;SDS011;10880;50.302;18.736;2022-11-15T16:10:28;9.37;;;6.00;;
21438;SDS011;10880;50.302;18.736;2022-11-15T16:13:28;7.50;;;5.13;;
21438;SDS011;10880;50.302;18.736;2022-11-15T16:16:18;10.30;;;5.67;;
21438;SDS011;10880;50.302;18.736;2022-11-15T16:18:58;11.97;;;6.97;;
21438;SDS011;10880;50.302;18.736;2022-11-15T16:21:31;14.13;;;7.80;;
21438;SDS011;10880;50.302;18.736;2022-11-15T16:23:59;13.27;;;7.53;;
21438;SDS011;10880;50.302;18.736;2022-11-15T16:26:26;10.93;;;7.07;;
21438;SDS011;10880;50.302;18.736;2022-11-15T16:28:54;13.30;;;7.30;;
21438;SDS011;10880;50.302;18.736;2022-11-15T16:31:21;12.50;;;6.93;;
21438;SDS011;10880;50.302;18.736;2022-11-15T16:33:47;8.73;;;5.90;;
21438;SDS011;10880;50.302;18.736;2022-11-15T16:36:24;9.43;;;6.07;;
21438;SDS011;10880;50.302;18.736;2022-11-15T16:38:51;9.10;;;5.87;;
21438;SDS011;10880;50.302;18.736;2022-11-15T16:41:18;8.03;;;5.53;;
21438;SDS011;10880;50.302;18.736;2022-11-15T16:43:45;9.93;;;6.00;;
21438;SDS011;10880;50.302;18.736;2022-11-15T16:46:13;13.03;;;7.43;;
21438;SDS011;10880;50.302;18.736;2022-11-15T16:48:42;16.90;;;9.13;;
21438;SDS011;10880;50.302;18.736;2022-11-15T16:51:09;18.00;;;9.90;;
21438;SDS011;10880;50.302;18.736;2022-11-15T16:53:36;14.80;;;8.43;;
21438;SDS011;10880;50.302;18.736;2022-11-15T16:56:03;10.33;;;6.33;;
21438;SDS011;10880;50.302;18.736;2022-11-15T16:58:29;9.60;;;6.33;;
21438;SDS011;10880;50.302;18.736;2022-11-15T17:00:58;9.93;;;6.37;;
21438;SDS011;10880;50.302;18.736;2022-11-15T17:03:24;15.03;;;8.07;;
21438;SDS011;10880;50.302;18.736;2022-11-15T17:05:50;14.33;;;8.47;;
21438;SDS011;10880;50.302;18.736;2022-11-15T17:08:17;15.43;;;8.00;;
21438;SDS011;10880;50.302;18.736;2022-11-15T17:10:46;12.17;;;7.03;;
21438;SDS011;10880;50.302;18.736;2022-11-15T17:13:12;16.30;;;8.87;;
21438;SDS011;10880;50.302;18.736;2022-11-15T17:15:39;43.50;;;16.40;;
21438;SDS011;10880;50.302;18.736;2022-11-15T17:18:06;27.33;;;13.07;;
21438;SDS011;10880;50.302;18.736;2022-11-15T17:20:35;26.27;;;11.50;;
21438;SDS011;10880;50.302;18.736;2022-11-15T17:23:01;20.77;;;9.30;;
21438;SDS011;10880;50.302;18.736;2022-11-15T17:25:28;14.20;;;6.97;;
21438;SDS011;10880;50.302;18.736;2022-11-15T17:27:55;13.07;;;6.70;;
21438;SDS011;10880;50.302;18.736;2022-11-15T17:30:21;10.47;;;6.63;;
21438;SDS011;10880;50.302;18.736;2022-11-15T17:32:47;12.77;;;6.80;;
21438;SDS011;10880;50.302;18.736;2022-11-15T17:35:14;14.60;;;7.57;;
21438;SDS011;10880;50.302;18.736;2022-11-15T17:37:41;11.73;;;7.23;;
21438;SDS011;10880;50.302;18.736;2022-11-15T17:40:08;13.43;;;7.57;;
21438;SDS011;10880;50.302;18.736;2022-11-15T17:42:35;22.30;;;12.10;;
21438;SDS011;10880;50.302;18.736;2022-11-15T17:45:02;24.97;;;12.70;;
21438;SDS011;10880;50.302;18.736;2022-11-15T17:47:28;22.83;;;12.50;;
21438;SDS011;10880;50.302;18.736;2022-11-15T17:49:55;29.50;;;14.57;;
21438;SDS011;10880;50.302;18.736;2022-11-15T17:52:21;30.20;;;15.20;;
21438;SDS011;10880;50.302;18.736;2022-11-15T17:54:47;24.17;;;13.40;;
21438;SDS011;10880;50.302;18.736;2022-11-15T17:57:14;22.13;;;12.17;;
21438;SDS011;10880;50.302;18.736;2022-11-15T17:59:40;21.07;;;11.73;;
21438;SDS011;10880;50.302;18.736;2022-11-15T18:02:08;18.67;;;10.43;;
21438;SDS011;10880;50.302;18.736;2022-11-15T18:04:37;19.80;;;10.87;;